createdAt,value
2024-03-24T00:00:27.704Z,48.8427843
2024-03-24T00:01:29.383Z,48.8137254
2024-03-24T00:03:29.199Z,48.8653836
2024-03-24T00:05:31.302Z,48.8589269
2024-03-24T00:07:31.379Z,48.8573125
2024-03-24T00:08:32.262Z,48.8427834
2024-03-24T00:09:49.750Z,48.887986
2024-03-24T00:11:40.154Z,48.9251167
2024-03-24T00:13:34.602Z,48.9654762
2024-03-24T00:14:35.155Z,49.0042213
2024-03-24T00:15:40.102Z,49.08332509999999
2024-03-24T00:16:42.437Z,49.0962402
2024-03-24T00:17:44.459Z,49.0607238
2024-03-24T00:19:38.301Z,48.9057447
2024-03-24T00:20:38.410Z,48.8734573
2024-03-24T00:21:45.413Z,48.8363266
2024-03-24T00:23:40.023Z,48.931574999999995
2024-03-24T00:24:40.575Z,48.9105881
2024-03-24T00:25:41.111Z,48.89283
2024-03-24T00:26:41.651Z,48.858928199999994
2024-03-24T00:27:42.196Z,48.8508561
2024-03-24T00:28:42.736Z,48.858927
2024-03-24T00:29:43.288Z,48.8847575
2024-03-24T00:30:43.814Z,48.954175600000006
2024-03-24T00:31:44.374Z,48.9993782
2024-03-24T00:32:44.910Z,48.978391300000006
2024-03-24T00:33:45.454Z,48.9057442
2024-03-24T00:34:46.013Z,48.829869099999996
2024-03-24T00:35:46.677Z,48.74753689999999
2024-03-24T00:36:47.083Z,48.736236
2024-03-24T00:37:47.639Z,48.7297787
2024-03-24T00:38:48.169Z,48.6974929
2024-03-24T00:39:48.710Z,48.710407700000005
2024-03-24T00:40:49.245Z,48.7265515
2024-03-24T00:41:49.820Z,48.7572247
2024-03-24T00:42:50.345Z,48.820185499999994
2024-03-24T00:43:50.889Z,48.8670025
2024-03-24T00:44:51.969Z,48.871845300000004
2024-03-24T00:46:52.515Z,48.936419699999995
2024-03-24T00:47:53.048Z,48.95256349999999
2024-03-24T00:49:54.136Z,49.004221599999994
2024-03-24T00:50:54.683Z,48.98162
2024-03-24T00:51:55.273Z,48.873458500000005
2024-03-24T00:52:55.785Z,48.807268900000004
2024-03-24T00:53:56.295Z,48.779824000000005
2024-03-24T00:54:56.851Z,48.75722270000001
2024-03-24T00:55:57.395Z,48.8088825
2024-03-24T00:57:58.470Z,48.8411697
2024-03-24T00:58:59.327Z,48.8104965
2024-03-24T00:59:59.661Z,48.7895096
2024-03-24T01:01:00.105Z,48.8234116
2024-03-24T01:02:00.644Z,48.83471230000001
2024-03-24T01:03:01.260Z,48.929958799999994
2024-03-24T01:04:01.738Z,48.91865839999999
2024-03-24T01:05:02.316Z,48.86861309999999
2024-03-24T01:06:02.827Z,48.854083700000004
2024-03-24T01:07:03.361Z,48.83955420000001
2024-03-24T01:08:03.910Z,48.8395541
2024-03-24T01:09:04.463Z,48.8815278
2024-03-24T01:10:05.009Z,48.9348021
2024-03-24T01:11:05.959Z,48.965474300000004
2024-03-24T01:12:06.111Z,48.97193180000001
2024-03-24T01:13:06.667Z,48.955788
2024-03-24T01:14:07.163Z,48.983232199999996
2024-03-24T01:15:07.719Z,48.999376
2024-03-24T01:16:08.283Z,48.9638599
2024-03-24T01:17:08.801Z,49.00260479999999
2024-03-24T01:18:09.381Z,49.0074481
2024-03-24T01:19:09.895Z,48.9896901
2024-03-24T01:20:10.411Z,48.9654745
2024-03-24T01:21:10.962Z,48.9525601
2024-03-24T01:22:11.539Z,48.946102599999996
2024-03-24T01:23:12.069Z,48.9105862
2024-03-24T01:24:12.604Z,48.913815
2024-03-24T01:25:13.170Z,48.9025143
2024-03-24T01:26:13.678Z,48.9735468
2024-03-24T01:27:14.212Z,48.950945700000005
2024-03-24T01:28:14.763Z,48.9461025
2024-03-24T01:29:15.316Z,48.9493312
2024-03-24T01:30:15.847Z,48.933187499999995
2024-03-24T01:31:16.541Z,48.9364166
2024-03-24T01:32:16.945Z,48.9396454
2024-03-24T01:33:17.481Z,48.947717299999994
2024-03-24T01:34:18.019Z,48.899286599999996
2024-03-24T01:35:18.568Z,48.91058729999999
2024-03-24T01:36:19.099Z,48.884757199999996
2024-03-24T01:37:19.638Z,48.83794019999999
2024-03-24T01:38:20.176Z,48.79596629999999
2024-03-24T01:39:20.729Z,48.765293099999994
2024-03-24T01:40:21.270Z,48.726548
2024-03-24T01:41:21.815Z,48.658744199999994
2024-03-24T01:42:22.374Z,48.640986
2024-03-24T01:43:22.912Z,48.62807099999999
2024-03-24T01:44:23.444Z,48.6442145
2024-03-24T01:45:23.981Z,48.6038559
2024-03-24T01:46:24.536Z,48.5118393
2024-03-24T01:47:25.076Z,48.486011000000005
2024-03-24T01:48:25.638Z,48.48278260000001
2024-03-24T01:49:26.244Z,48.447267499999995
2024-03-24T01:50:26.711Z,48.450496400000006
2024-03-24T01:51:27.251Z,48.463411300000004
2024-03-24T01:52:27.778Z,48.4456541
2024-03-24T01:53:28.344Z,48.403681399999996
2024-03-24T01:54:28.881Z,48.3956091
2024-03-24T01:55:29.425Z,48.3923808
2024-03-24T01:56:29.966Z,48.350406899999996
2024-03-24T01:57:30.497Z,48.284218599999996
2024-03-24T01:58:31.042Z,48.2293318
2024-03-24T01:59:31.583Z,48.2487035
2024-03-24T02:00:32.135Z,48.1938169
2024-03-24T02:01:32.688Z,48.129244500000006
2024-03-24T02:02:33.211Z,48.092115
2024-03-24T02:03:33.751Z,48.0695155
2024-03-24T02:04:34.306Z,48.021087
2024-03-24T02:05:34.865Z,47.987185499999995
2024-03-24T02:06:35.377Z,48.00978669999999
2024-03-24T02:07:35.930Z,48.082432
2024-03-24T02:08:36.462Z,48.09050429999999
2024-03-24T02:09:37.010Z,48.0743611
2024-03-24T02:10:37.572Z,48.090504599999996
2024-03-24T02:11:38.100Z,48.088890299999996
2024-03-24T02:12:38.647Z,48.109876
2024-03-24T02:13:39.201Z,48.119561899999994
2024-03-24T02:14:39.727Z,48.117947699999995
2024-03-24T02:16:40.813Z,48.10341909999999
2024-03-24T02:17:41.351Z,48.10987639999999
2024-03-24T02:18:42.856Z,48.11149079999999
2024-03-24T02:19:42.434Z,48.0582156
2024-03-24T02:20:42.979Z,48.11310379999999
2024-03-24T02:21:43.525Z,48.1244041
2024-03-24T02:22:44.067Z,48.19381969999999
2024-03-24T02:23:44.615Z,48.2067341
2024-03-24T02:24:45.149Z,48.2422485
2024-03-24T02:25:45.702Z,48.311664300000004
2024-03-24T02:26:46.240Z,48.3875375
2024-03-24T02:27:46.786Z,48.4488822
2024-03-24T02:28:47.326Z,48.4779405
2024-03-24T02:29:47.870Z,48.59740239999999
2024-03-24T02:30:48.400Z,48.569958099999994
2024-03-24T02:31:48.943Z,48.611930599999994
2024-03-24T02:32:49.485Z,48.615159600000005
2024-03-24T02:33:50.033Z,48.63937510000001
2024-03-24T02:34:50.584Z,48.64744710000001
2024-03-24T02:35:51.123Z,48.63453150000001
2024-03-24T02:36:51.664Z,48.5554294
2024-03-24T02:37:52.205Z,48.50215670000001
2024-03-24T02:38:52.757Z,48.4924699
2024-03-24T02:39:53.296Z,48.471483
2024-03-24T02:40:53.846Z,48.435967700000006
2024-03-24T02:41:54.380Z,48.3762378
2024-03-24T02:42:54.919Z,48.30682180000001
2024-03-24T02:43:55.462Z,48.318122599999995
2024-03-24T02:44:56.003Z,48.3891545
2024-03-24T02:45:56.882Z,48.406912899999995
2024-03-24T02:46:57.092Z,48.458571199999994
2024-03-24T02:47:57.655Z,48.539287499999986
2024-03-24T02:48:58.171Z,48.50538759999999
2024-03-24T02:49:58.733Z,48.473102
2024-03-24T02:50:59.260Z,48.49570189999999
2024-03-24T02:51:59.832Z,48.5231446
2024-03-24T02:53:00.352Z,48.5279872
2024-03-24T02:54:00.904Z,48.471484999999994
2024-03-24T02:55:01.450Z,48.3617096
2024-03-24T02:56:04.349Z,48.342337099999995
2024-03-24T02:58:03.302Z,48.30682159999999
2024-03-24T02:59:06.845Z,48.35202219999999
2024-03-24T03:01:11.368Z,48.261618799999994
2024-03-24T03:03:07.114Z,48.1728288
2024-03-24T03:05:06.863Z,48.1502287
2024-03-24T03:06:07.428Z,48.121171
2024-03-24T03:07:08.015Z,48.121171000000004
2024-03-24T03:08:08.504Z,48.0695115
2024-03-24T03:09:18.156Z,48.051753399999996
2024-03-24T03:11:10.132Z,48.166373699999994
2024-03-24T03:12:11.178Z,48.2099633
2024-03-24T03:13:13.547Z,48.214805899999995
2024-03-24T03:15:12.295Z,48.25032029999999
2024-03-24T03:16:21.917Z,48.25354889999999
2024-03-24T03:18:13.921Z,48.15668829999999
2024-03-24T03:19:27.950Z,48.10987379999999
2024-03-24T03:21:17.254Z,47.9904125
2024-03-24T03:23:16.651Z,47.9807266
2024-03-24T03:24:17.465Z,47.916152999999994
2024-03-24T03:25:17.716Z,47.9048527
2024-03-24T03:26:18.253Z,47.8822518
2024-03-24T03:27:18.800Z,47.8838667
2024-03-24T03:28:19.336Z,47.916155100000005
2024-03-24T03:29:19.887Z,47.912926600000006
2024-03-24T03:30:20.431Z,47.8806391
2024-03-24T03:31:20.964Z,47.8451222
2024-03-24T03:32:21.518Z,47.8451214
2024-03-24T03:33:22.055Z,47.8887079
2024-03-24T03:34:22.595Z,47.950052500000005
2024-03-24T03:35:23.147Z,48.0097824
2024-03-24T03:36:23.680Z,48.0146262
2024-03-24T03:37:24.226Z,48.0517553
2024-03-24T03:38:24.803Z,48.0953414
2024-03-24T03:39:25.312Z,48.038837
2024-03-24T03:40:25.852Z,48.0372226
2024-03-24T03:41:26.420Z,48.0695107
2024-03-24T03:42:26.947Z,48.0695117
2024-03-24T03:43:27.499Z,48.0339976
2024-03-24T03:44:28.028Z,47.9855682
2024-03-24T03:45:28.584Z,47.9048522
2024-03-24T03:46:29.118Z,47.8693366
2024-03-24T03:47:29.671Z,47.8322078
2024-03-24T03:48:30.195Z,47.816066
2024-03-24T03:49:30.733Z,47.8596553
2024-03-24T03:50:31.277Z,47.922615199999996
2024-03-24T03:51:31.866Z,47.9775019
2024-03-24T03:52:32.373Z,47.946828800000006
2024-03-24T03:53:32.909Z,47.9161553
2024-03-24T03:54:33.445Z,47.9774992
2024-03-24T03:55:34.000Z,47.9920279
2024-03-24T03:56:34.561Z,48.001713699999996
2024-03-24T03:57:35.078Z,47.9984846
2024-03-24T03:58:35.626Z,47.935522500000005
2024-03-24T03:59:36.165Z,47.9129207
2024-03-24T04:00:36.803Z,47.90000639999999
2024-03-24T04:01:37.245Z,47.8628775
2024-03-24T04:02:37.807Z,47.870949100000004
2024-03-24T04:03:38.354Z,47.8515765
2024-03-24T04:04:38.880Z,47.7853895
2024-03-24T04:05:39.423Z,47.8176755
2024-03-24T04:06:39.965Z,47.8790194
2024-03-24T04:08:41.045Z,47.9371345
2024-03-24T04:09:41.604Z,48.03238259999999
2024-03-24T04:10:42.135Z,48.074356699999996
2024-03-24T04:11:42.681Z,48.1163289
2024-03-24T04:12:43.216Z,48.1405435
2024-03-24T04:13:43.769Z,48.171216
2024-03-24T04:14:44.310Z,48.227718499999995
2024-03-24T04:15:44.850Z,48.263233799999995
2024-03-24T04:16:45.402Z,48.277762499999994
2024-03-24T04:17:45.934Z,48.2551626
2024-03-24T04:18:46.487Z,48.253549199999995
2024-03-24T04:19:47.015Z,48.2567774
2024-03-24T04:20:47.560Z,48.3035917
2024-03-24T04:21:48.113Z,48.268076099999995
2024-03-24T04:22:48.659Z,48.251933099999995
2024-03-24T04:23:49.184Z,48.237404
2024-03-24T04:24:49.731Z,48.188973999999995
2024-03-24T04:25:50.292Z,48.1566869
2024-03-24T04:26:50.819Z,48.090499799999996
2024-03-24T04:27:51.367Z,48.111485800000004
2024-03-24T04:28:51.908Z,48.1050282
2024-03-24T04:29:52.458Z,48.0662854
2024-03-24T04:30:52.981Z,48.043685499999995
2024-03-24T04:31:53.530Z,48.0759716
2024-03-24T04:32:54.075Z,48.1131003
2024-03-24T04:33:54.618Z,48.15668689999999
2024-03-24T04:34:55.162Z,48.24547549999998
2024-03-24T04:35:55.706Z,48.255162
2024-03-24T04:36:56.264Z,48.25193359999999
2024-03-24T04:37:56.785Z,48.2067335
2024-03-24T04:38:57.337Z,48.197047299999994
2024-03-24T04:39:57.892Z,48.24709
2024-03-24T04:40:59.930Z,48.2309468
2024-03-24T04:42:59.504Z,48.0824291
2024-03-24T04:44:03.294Z,47.982338600000006
2024-03-24T04:46:01.142Z,47.9565072
2024-03-24T04:47:02.098Z,47.961349999999996
2024-03-24T04:48:02.269Z,47.9129174
2024-03-24T04:49:13.667Z,47.8774019
2024-03-24T04:51:03.860Z,47.7902292
2024-03-24T04:52:06.791Z,47.7821574
2024-03-24T04:54:05.484Z,47.88547820000001
2024-03-24T04:55:09.292Z,47.83059090000001
2024-03-24T04:57:07.173Z,47.73211520000001
2024-03-24T04:58:07.680Z,47.7450314
2024-03-24T04:59:09.038Z,47.727274200000004
2024-03-24T05:00:09.971Z,47.733732
2024-03-24T05:01:14.578Z,47.724045000000004
2024-03-24T05:03:13.921Z,47.659468499999996
2024-03-24T05:05:11.610Z,47.623953500000006
2024-03-24T05:06:11.980Z,47.6207249
2024-03-24T05:07:28.174Z,47.6481687
2024-03-24T05:09:13.617Z,47.5965071
2024-03-24T05:10:14.169Z,47.5609907
2024-03-24T05:11:14.706Z,47.5868215
2024-03-24T05:12:15.268Z,47.630409
2024-03-24T05:13:15.836Z,47.672384
2024-03-24T05:14:16.319Z,47.6804557
2024-03-24T05:15:16.869Z,47.6433234
2024-03-24T05:16:17.436Z,47.6707684
2024-03-24T05:17:17.959Z,47.656239299999996
2024-03-24T05:18:18.513Z,47.662696999999994
2024-03-24T05:19:19.071Z,47.6546246
2024-03-24T05:20:19.585Z,47.6255643
2024-03-24T05:21:20.125Z,47.5367708
2024-03-24T05:22:20.674Z,47.5125555
2024-03-24T05:23:21.206Z,47.5109413
2024-03-24T05:24:21.759Z,47.552914099999995
2024-03-24T05:25:22.435Z,47.67076289999999
2024-03-24T05:26:22.841Z,47.698206899999995
2024-03-24T05:27:23.396Z,47.6643037
2024-03-24T05:28:23.997Z,47.622328
2024-03-24T05:29:24.486Z,47.6045687
2024-03-24T05:30:25.016Z,47.562593500000006
2024-03-24T05:31:25.574Z,47.5609795
2024-03-24T05:32:26.142Z,47.53999280000001
2024-03-24T05:33:26.653Z,47.5545222
2024-03-24T05:34:27.483Z,47.5238502
2024-03-24T05:35:27.725Z,47.4366762
2024-03-24T05:36:28.256Z,47.3979316
2024-03-24T05:37:29.613Z,47.435063
2024-03-24T05:38:29.922Z,47.509325499999996
2024-03-24T05:40:31.122Z,47.725656900000004
2024-03-24T05:42:32.936Z,47.8128345
2024-03-24T05:44:33.040Z,47.8112192
2024-03-24T05:45:33.164Z,47.817676
2024-03-24T05:46:33.819Z,47.853191499999994
2024-03-24T05:47:35.126Z,47.8370482
2024-03-24T05:49:36.791Z,47.7353419
2024-03-24T05:51:36.758Z,47.5819721
2024-03-24T05:52:37.529Z,47.5351556
2024-03-24T05:54:39.465Z,47.543228500000005
2024-03-24T05:55:41.006Z,47.577131
2024-03-24T05:57:40.053Z,47.5335413
2024-03-24T05:58:40.322Z,47.591660399999995
2024-03-24T05:59:44.136Z,47.601347
2024-03-24T06:01:43.979Z,47.74180199999999
2024-03-24T06:02:42.381Z,47.7595599
2024-03-24T06:03:42.933Z,47.7434153
2024-03-24T06:04:43.540Z,47.7450297
2024-03-24T06:05:47.379Z,47.715970999999996
2024-03-24T06:07:45.131Z,47.7208158
2024-03-24T06:08:45.636Z,47.6901425
2024-03-24T06:09:46.201Z,47.6788416
2024-03-24T06:10:46.720Z,47.7030573
2024-03-24T06:11:47.257Z,47.682071300000004
2024-03-24T06:12:49.030Z,47.6530126
2024-03-24T06:14:51.594Z,47.5981222
2024-03-24T06:16:49.966Z,47.66431179999999
2024-03-24T06:17:50.527Z,47.6723846
2024-03-24T06:18:51.627Z,47.7062861
2024-03-24T06:20:52.489Z,47.6659268
2024-03-24T06:21:55.591Z,47.6933713
2024-03-24T06:23:53.772Z,47.6546239
2024-03-24T06:24:54.357Z,47.632022899999996
2024-03-24T06:25:54.878Z,47.5819758
2024-03-24T06:26:55.588Z,47.5367717
2024-03-24T06:27:55.943Z,47.5609868
2024-03-24T06:28:56.503Z,47.5190127
2024-03-24T06:29:57.025Z,47.5157836
2024-03-24T06:30:57.844Z,47.5383842
2024-03-24T06:31:58.114Z,47.54807
2024-03-24T06:32:59.519Z,47.6045741
2024-03-24T06:34:59.767Z,47.698210800000005
2024-03-24T06:36:00.857Z,47.7353425
2024-03-24T06:37:01.770Z,47.76440290000001
2024-03-24T06:38:05.200Z,47.7321158
2024-03-24T06:40:02.463Z,47.6772244
2024-03-24T06:41:03.433Z,47.6417087
2024-03-24T06:42:03.879Z,47.6207218
2024-03-24T06:43:04.268Z,47.552916100000004
2024-03-24T06:44:05.369Z,47.53838590000001
2024-03-24T06:46:05.730Z,47.378559200000005
2024-03-24T06:47:06.265Z,47.346270200000006
2024-03-24T06:48:06.811Z,47.3607987
2024-03-24T06:49:07.359Z,47.4366769
2024-03-24T06:50:07.885Z,47.4576647
2024-03-24T06:51:08.425Z,47.507710599999996
2024-03-24T06:52:08.972Z,47.5222395
2024-03-24T06:53:09.904Z,47.552914
2024-03-24T06:54:10.229Z,47.57551399999999
2024-03-24T06:55:10.595Z,47.6546205
2024-03-24T06:56:11.141Z,47.7886144
2024-03-24T06:57:11.750Z,47.8515764
2024-03-24T06:58:12.269Z,47.8612634
2024-03-24T06:59:14.208Z,47.8031446
2024-03-24T07:01:13.841Z,47.7417961
2024-03-24T07:02:14.409Z,47.701437299999995
2024-03-24T07:03:14.945Z,47.662690999999995
2024-03-24T07:04:15.482Z,47.612645099999995
2024-03-24T07:05:16.119Z,47.5803573
2024-03-24T07:06:16.575Z,47.5609858
2024-03-24T07:07:17.692Z,47.49802420000001
2024-03-24T07:08:17.789Z,47.47542320000001
2024-03-24T07:09:18.205Z,47.4931821
2024-03-24T07:10:18.733Z,47.5254705
2024-03-24T07:11:19.288Z,47.5012544
2024-03-24T07:12:25.123Z,47.510940899999994
2024-03-24T07:14:30.383Z,47.59973519999999
2024-03-24T07:16:22.061Z,47.523859800000004
2024-03-24T07:17:28.529Z,47.58520610000001
2024-03-24T07:19:37.188Z,47.6417098
2024-03-24T07:21:24.718Z,47.6788398
2024-03-24T07:22:28.611Z,47.6739962
2024-03-24T07:24:26.499Z,47.667538300000004
2024-03-24T07:25:29.890Z,47.6643096
2024-03-24T07:27:28.120Z,47.55614369999999
2024-03-24T07:28:28.775Z,47.496409400000005
2024-03-24T07:29:29.164Z,47.4915663
2024-03-24T07:30:30.045Z,47.4867243
2024-03-24T07:31:30.129Z,47.502869000000004
2024-03-24T07:32:30.686Z,47.4754234
2024-03-24T07:33:33.970Z,47.410846299999996
2024-03-24T07:34:31.797Z,47.402774
2024-03-24T07:35:43.893Z,47.3656409
2024-03-24T07:37:34.382Z,47.37855570000001
2024-03-24T07:39:37.008Z,47.33012360000001
2024-03-24T07:41:38.821Z,47.1444647
2024-03-24T07:43:39.740Z,47.06697200000001
2024-03-24T07:44:54.376Z,47.0282253
2024-03-24T07:46:40.096Z,46.9959372
2024-03-24T07:48:41.603Z,46.9313607
2024-03-24T07:49:39.932Z,46.865169300000005
2024-03-24T07:50:40.432Z,46.8167371
2024-03-24T07:51:41.004Z,46.784449300000006
2024-03-24T07:52:46.463Z,46.78929270000001
2024-03-24T07:54:43.038Z,46.897459500000004
2024-03-24T07:55:43.847Z,46.9006887
2024-03-24T07:56:46.643Z,46.8861593
2024-03-24T07:58:44.865Z,46.889389
2024-03-24T07:59:45.777Z,46.9265209
2024-03-24T08:00:45.931Z,46.9103771
2024-03-24T08:01:46.682Z,46.8619458
2024-03-24T08:02:49.586Z,46.8700185
2024-03-24T08:04:48.361Z,46.6440022
2024-03-24T08:05:48.604Z,46.56328320000001
2024-03-24T08:06:49.121Z,46.560054400000006
2024-03-24T08:07:49.744Z,46.587498700000005
2024-03-24T08:08:50.213Z,46.57458269999999
2024-03-24T08:09:50.957Z,46.55843749999999
2024-03-24T08:10:51.303Z,46.568123799999995
2024-03-24T08:11:56.148Z,46.54552379999999
2024-03-24T08:13:53.218Z,46.4147612
2024-03-24T08:14:56.785Z,46.4115326
2024-03-24T08:16:54.547Z,46.300143000000006
2024-03-24T08:17:55.247Z,46.2420256
2024-03-24T08:18:55.637Z,46.1548487
2024-03-24T08:19:56.181Z,46.108031800000006
2024-03-24T08:21:03.962Z,46.083816500000005
2024-03-24T08:23:00.027Z,46.146776
2024-03-24T08:24:58.891Z,46.2161926
2024-03-24T08:25:59.447Z,46.29045240000001
2024-03-24T08:26:59.976Z,46.3388824
2024-03-24T08:28:00.546Z,46.379241699999994
2024-03-24T08:29:01.066Z,46.382470999999995
2024-03-24T08:30:05.854Z,46.3404974
2024-03-24T08:31:18.574Z,46.3453407
2024-03-24T08:33:10.476Z,46.4696479
2024-03-24T08:35:04.324Z,46.6698315
2024-03-24T08:36:06.367Z,46.677903400000005
2024-03-24T08:38:08.438Z,46.72149230000001
2024-03-24T08:39:12.742Z,46.8118978
2024-03-24T08:41:07.583Z,46.8215847
2024-03-24T08:42:12.871Z,46.7521664
2024-03-24T08:44:30.702Z,46.5858846
2024-03-24T08:46:15.000Z,46.4551185
2024-03-24T08:48:11.755Z,46.3421113
2024-03-24T08:49:12.018Z,46.2339468
2024-03-24T08:51:21.814Z,46.193587099999995
2024-03-24T08:52:23.230Z,46.2404032
2024-03-24T08:54:16.357Z,46.30820670000001
2024-03-24T08:56:24.296Z,46.43412980000001
2024-03-24T08:58:17.919Z,46.518078
2024-03-24T09:00:17.919Z,46.6472291
2024-03-24T09:01:18.439Z,46.6649868
2024-03-24T09:02:23.884Z,46.69566
2024-03-24T09:04:21.246Z,46.7570073
2024-03-24T09:06:21.455Z,46.694045
2024-03-24T09:07:40.724Z,46.690815699999995
2024-03-24T09:09:23.635Z,46.773150699999995
2024-03-24T09:10:23.321Z,46.7311762
2024-03-24T09:11:23.868Z,46.7779932
2024-03-24T09:12:24.389Z,46.727947799999995
2024-03-24T09:13:29.368Z,46.6197854
2024-03-24T09:15:26.411Z,46.43897739999999
2024-03-24T09:16:26.576Z,46.4002326
2024-03-24T09:17:27.139Z,46.3921607
2024-03-24T09:18:27.673Z,46.321127999999995
2024-03-24T09:19:28.537Z,46.229107
2024-03-24T09:20:28.784Z,46.203276900000006
2024-03-24T09:21:29.697Z,46.2258789
2024-03-24T09:22:29.837Z,46.27431
2024-03-24T09:23:32.374Z,46.387315099999995
2024-03-24T09:25:31.547Z,46.61655549999999
2024-03-24T09:26:32.006Z,46.6762878
2024-03-24T09:27:38.495Z,46.66821589999999
2024-03-24T09:29:33.631Z,46.7198758
2024-03-24T09:30:39.341Z,46.7440915
2024-03-24T09:32:35.246Z,46.7457059
2024-03-24T09:33:35.806Z,46.7618515
2024-03-24T09:34:37.223Z,46.715033899999995
2024-03-24T09:35:39.225Z,46.684359799999996
2024-03-24T09:36:40.199Z,46.6472285
2024-03-24T09:38:40.185Z,46.6682156
2024-03-24T09:40:39.881Z,46.697274500000006
2024-03-24T09:41:41.521Z,46.6875883
2024-03-24T09:43:42.762Z,46.6294682
2024-03-24T09:45:42.350Z,46.6972725
2024-03-24T09:46:42.848Z,46.695658099999996
2024-03-24T09:47:43.498Z,46.655298599999995
2024-03-24T09:48:43.949Z,46.59556679999999
2024-03-24T09:49:44.490Z,46.5422922
2024-03-24T09:50:45.028Z,46.540677800000005
2024-03-24T09:51:45.571Z,46.4777176
2024-03-24T09:52:46.107Z,46.43413
2024-03-24T09:53:58.110Z,46.4777198
2024-03-24T09:55:47.739Z,46.42283139999999
2024-03-24T09:56:48.284Z,46.484179
2024-03-24T09:57:51.771Z,46.5196952
2024-03-24T09:58:49.375Z,46.521309300000006
2024-03-24T09:59:59.034Z,46.57458390000001
2024-03-24T10:01:52.366Z,46.6423873
2024-03-24T10:02:53.295Z,46.661759
2024-03-24T10:03:54.915Z,46.6278559
2024-03-24T10:05:53.265Z,46.6407701
2024-03-24T10:06:53.712Z,46.54874929999999
2024-03-24T10:07:54.247Z,46.52291929999999
2024-03-24T10:08:54.812Z,46.53744869999999
2024-03-24T10:09:55.341Z,46.52776239999999
2024-03-24T10:10:55.876Z,46.5487493
2024-03-24T10:12:01.893Z,46.5132329
2024-03-24T10:13:57.892Z,46.3679401
2024-03-24T10:14:59.099Z,46.338881900000004
2024-03-24T10:17:06.355Z,46.4147577
2024-03-24T10:19:05.160Z,46.464804
2024-03-24T10:21:08.979Z,46.3824724
2024-03-24T10:23:02.395Z,46.4874075
2024-03-24T10:24:02.941Z,46.5196935
2024-03-24T10:25:03.468Z,46.49224840000001
2024-03-24T10:26:14.236Z,46.432516400000004
2024-03-24T10:28:05.896Z,46.3453408
2024-03-24T10:31:08.288Z,46.426057400000005
2024-03-24T10:33:08.502Z,46.440587799999996
2024-03-24T10:35:08.992Z,46.37762669999999
2024-03-24T10:36:15.526Z,46.38247
2024-03-24T10:38:10.542Z,46.4341295
2024-03-24T10:39:11.067Z,46.471261
2024-03-24T10:40:11.618Z,46.4325165
2024-03-24T10:41:12.156Z,46.438973999999995
2024-03-24T10:42:12.699Z,46.500319399999995
2024-03-24T10:43:17.438Z,46.522921999999994
2024-03-24T10:45:15.270Z,46.49870759999999
2024-03-24T10:46:22.494Z,46.52130879999999
2024-03-24T10:48:16.169Z,46.6101014
2024-03-24T10:49:16.503Z,46.589113499999996
2024-03-24T10:50:21.078Z,46.684363
2024-03-24T10:51:29.293Z,46.7973724
2024-03-24T10:53:20.407Z,46.9039243
2024-03-24T10:54:20.987Z,47.028234399999995
2024-03-24T10:56:20.291Z,47.26070729999999
2024-03-24T10:57:20.840Z,47.357572399999995
2024-03-24T10:58:21.389Z,47.4043908
2024-03-24T10:59:21.930Z,47.5141708
2024-03-24T11:00:22.857Z,47.5593742
2024-03-24T11:01:23.017Z,47.5545304
2024-03-24T11:02:23.551Z,47.567445899999996
2024-03-24T11:03:24.108Z,47.593275799999994
2024-03-24T11:04:24.643Z,47.58358919999999
2024-03-24T11:05:25.190Z,47.599733199999996
2024-03-24T11:06:26.935Z,47.560987
2024-03-24T11:08:28.150Z,47.501253500000004
2024-03-24T11:10:27.983Z,47.494794999999996
2024-03-24T11:11:29.413Z,47.509325000000004
2024-03-24T11:13:29.706Z,47.6029592
2024-03-24T11:14:30.792Z,47.6271754
2024-03-24T11:16:31.213Z,47.759557400000006
2024-03-24T11:17:32.804Z,47.7789308
2024-03-24T11:18:32.805Z,47.7886172
2024-03-24T11:19:32.933Z,47.7660165
2024-03-24T11:20:33.774Z,47.764401899999996
2024-03-24T11:21:33.876Z,47.7870027
2024-03-24T11:22:34.420Z,47.7062836
2024-03-24T11:23:35.339Z,47.706284
2024-03-24T11:24:36.230Z,47.6417073
2024-03-24T11:25:36.762Z,47.604575499999996
2024-03-24T11:26:37.367Z,47.54807159999999
2024-03-24T11:27:38.057Z,47.506096
2024-03-24T11:29:38.207Z,47.494794899999995
2024-03-24T11:30:38.749Z,47.5545289
2024-03-24T11:31:39.907Z,47.5448435
2024-03-24T11:32:40.032Z,47.5593741
2024-03-24T11:33:40.386Z,47.5496879
2024-03-24T11:34:40.988Z,47.5852057
2024-03-24T11:35:41.646Z,47.5997362
2024-03-24T11:36:42.489Z,47.6304103
2024-03-24T11:37:42.699Z,47.686915799999994
2024-03-24T11:38:43.088Z,47.7498778
2024-03-24T11:39:43.635Z,47.7999231
2024-03-24T11:40:46.904Z,47.8241382
2024-03-24T11:42:45.278Z,47.870955300000006
2024-03-24T11:44:00.786Z,47.887097999999995
2024-03-24T11:45:46.895Z,47.9516725
2024-03-24T11:46:47.441Z,47.9226135
2024-03-24T11:47:48.041Z,47.9032408
2024-03-24T11:48:48.510Z,47.8741821
2024-03-24T11:49:49.072Z,47.90001049999999
2024-03-24T11:50:57.199Z,47.8693358
2024-03-24T11:52:57.858Z,47.71757999999999
2024-03-24T11:54:57.366Z,47.5480675
2024-03-24T11:56:52.857Z,47.54806370000001
2024-03-24T11:57:53.410Z,47.6546102
2024-03-24T11:58:53.937Z,47.6529944
2024-03-24T11:59:54.494Z,47.569047499999996
2024-03-24T12:00:55.034Z,47.5674345
2024-03-24T12:01:55.584Z,47.606179600000004
2024-03-24T12:02:56.154Z,47.6255534
2024-03-24T12:03:56.665Z,47.698201600000004
2024-03-24T12:04:57.213Z,47.7466347
2024-03-24T12:05:57.761Z,47.804754
2024-03-24T12:06:58.288Z,47.8289697
2024-03-24T12:07:59.797Z,47.7530965
2024-03-24T12:09:00.466Z,47.71758039999999
2024-03-24T12:10:01.095Z,47.72403839999999
2024-03-24T12:11:01.106Z,47.756325999999994
2024-03-24T12:13:04.255Z,47.9629651
2024-03-24T12:15:02.643Z,47.9500508
2024-03-24T12:16:03.189Z,47.9419779
2024-03-24T12:17:11.394Z,47.9322933
2024-03-24T12:19:04.990Z,48.0130116